<?xml version="1.0" encoding="UTF-8" standalone="no" ?>
<gpx xmlns="http://www.topografix.com/GPX/1/1" xmlns:xsi="http://www.w3.org/2001/XMLSchema-instance" xsi:schemaLocation="http://www.topografix.com/GPX/1/1 http://www.topografix.com/GPX/1/1/gpx.xsd" version="1.1" creator="VisuGPX - https://www.visugpx.com">
  <metadata>
    <name>La cool </name>
    <desc><![CDATA[piste vtt du bike park du lac blanc]]></desc>
  </metadata>
  <trk>
    <name><![CDATA[COOL]]></name>
    <trkseg>
      <trkpt lat="48.14302" lon="7.07547">
        <ele>928.77</ele>
        <time>2013-10-04T12:35:52Z</time>
      </trkpt>
      <trkpt lat="48.14302" lon="7.07547">
        <ele>928.77</ele>
        <time>2013-10-04T12:36:08Z</time>
      </trkpt>
      <trkpt lat="48.143" lon="7.07544">
        <ele>929.73</ele>
        <time>2013-10-04T12:36:09Z</time>
      </trkpt>
      <trkpt lat="48.14298" lon="7.0754">
        <ele>929.25</ele>
        <time>2013-10-04T12:36:10Z</time>
      </trkpt>
      <trkpt lat="48.14296" lon="7.07535">
        <ele>929.73</ele>
        <time>2013-10-04T12:36:11Z</time>
      </trkpt>
      <trkpt lat="48.14293" lon="7.07532">
        <ele>930.21</ele>
        <time>2013-10-04T12:36:12Z</time>
      </trkpt>
      <trkpt lat="48.14289" lon="7.07531">
        <ele>930.21</ele>
        <time>2013-10-04T12:36:13Z</time>
      </trkpt>
      <trkpt lat="48.14285" lon="7.07533">
        <ele>930.21</ele>
        <time>2013-10-04T12:36:14Z</time>
      </trkpt>
      <trkpt lat="48.14283" lon="7.07537">
        <ele>930.69</ele>
        <time>2013-10-04T12:36:15Z</time>
      </trkpt>
      <trkpt lat="48.14281" lon="7.07541">
        <ele>931.65</ele>
        <time>2013-10-04T12:36:16Z</time>
      </trkpt>
      <trkpt lat="48.14281" lon="7.07545">
        <ele>931.65</ele>
        <time>2013-10-04T12:36:17Z</time>
      </trkpt>
      <trkpt lat="48.1428" lon="7.07549">
        <ele>932.62</ele>
        <time>2013-10-04T12:36:18Z</time>
      </trkpt>
      <trkpt lat="48.14279" lon="7.07553">
        <ele>933.1</ele>
        <time>2013-10-04T12:36:19Z</time>
      </trkpt>
      <trkpt lat="48.14278" lon="7.07555">
        <ele>934.54</ele>
        <time>2013-10-04T12:36:20Z</time>
      </trkpt>
      <trkpt lat="48.14277" lon="7.07556">
        <ele>934.54</ele>
        <time>2013-10-04T12:36:21Z</time>
      </trkpt>
      <trkpt lat="48.14274" lon="7.07553">
        <ele>936.94</ele>
        <time>2013-10-04T12:36:29Z</time>
      </trkpt>
      <trkpt lat="48.1427" lon="7.0755">
        <ele>936.94</ele>
        <time>2013-10-04T12:36:31Z</time>
      </trkpt>
      <trkpt lat="48.14253" lon="7.07518">
        <ele>939.83</ele>
        <time>2013-10-04T12:36:40Z</time>
      </trkpt>
      <trkpt lat="48.14246" lon="7.07497">
        <ele>940.79</ele>
        <time>2013-10-04T12:36:45Z</time>
      </trkpt>
      <trkpt lat="48.14241" lon="7.07492">
        <ele>941.75</ele>
        <time>2013-10-04T12:36:46Z</time>
      </trkpt>
      <trkpt lat="48.14236" lon="7.07487">
        <ele>942.23</ele>
        <time>2013-10-04T12:36:47Z</time>
      </trkpt>
      <trkpt lat="48.1423" lon="7.07482">
        <ele>942.71</ele>
        <time>2013-10-04T12:36:48Z</time>
      </trkpt>
      <trkpt lat="48.14225" lon="7.07478">
        <ele>943.67</ele>
        <time>2013-10-04T12:36:49Z</time>
      </trkpt>
      <trkpt lat="48.14219" lon="7.07475">
        <ele>944.15</ele>
        <time>2013-10-04T12:36:50Z</time>
      </trkpt>
      <trkpt lat="48.14215" lon="7.07473">
        <ele>945.11</ele>
        <time>2013-10-04T12:36:51Z</time>
      </trkpt>
      <trkpt lat="48.1421" lon="7.0747">
        <ele>946.07</ele>
        <time>2013-10-04T12:36:52Z</time>
      </trkpt>
      <trkpt lat="48.14205" lon="7.07468">
        <ele>947.52</ele>
        <time>2013-10-04T12:36:53Z</time>
      </trkpt>
      <trkpt lat="48.14201" lon="7.07464">
        <ele>948</ele>
        <time>2013-10-04T12:36:54Z</time>
      </trkpt>
      <trkpt lat="48.14197" lon="7.07458">
        <ele>949.44</ele>
        <time>2013-10-04T12:36:55Z</time>
      </trkpt>
      <trkpt lat="48.14195" lon="7.07452">
        <ele>949.92</ele>
        <time>2013-10-04T12:36:56Z</time>
      </trkpt>
      <trkpt lat="48.14177" lon="7.07419">
        <ele>953.28</ele>
        <time>2013-10-04T12:37:04Z</time>
      </trkpt>
      <trkpt lat="48.14173" lon="7.07414">
        <ele>953.77</ele>
        <time>2013-10-04T12:37:12Z</time>
      </trkpt>
      <trkpt lat="48.14169" lon="7.07409">
        <ele>954.25</ele>
        <time>2013-10-04T12:37:15Z</time>
      </trkpt>
      <trkpt lat="48.14167" lon="7.07407">
        <ele>954.73</ele>
        <time>2013-10-04T12:37:16Z</time>
      </trkpt>
      <trkpt lat="48.14163" lon="7.07402">
        <ele>954.25</ele>
        <time>2013-10-04T12:37:22Z</time>
      </trkpt>
      <trkpt lat="48.1416" lon="7.07397">
        <ele>954.25</ele>
        <time>2013-10-04T12:37:37Z</time>
      </trkpt>
      <trkpt lat="48.14159" lon="7.07395">
        <ele>953.77</ele>
        <time>2013-10-04T12:38:03Z</time>
      </trkpt>
      <trkpt lat="48.14155" lon="7.07389">
        <ele>956.65</ele>
        <time>2013-10-04T12:38:18Z</time>
      </trkpt>
      <trkpt lat="48.14147" lon="7.07381">
        <ele>959.05</ele>
        <time>2013-10-04T12:38:22Z</time>
      </trkpt>
      <trkpt lat="48.14144" lon="7.07381">
        <ele>959.53</ele>
        <time>2013-10-04T12:38:23Z</time>
      </trkpt>
      <trkpt lat="48.14142" lon="7.07381">
        <ele>960.01</ele>
        <time>2013-10-04T12:38:24Z</time>
      </trkpt>
      <trkpt lat="48.1414" lon="7.07383">
        <ele>960.49</ele>
        <time>2013-10-04T12:38:25Z</time>
      </trkpt>
      <trkpt lat="48.14138" lon="7.07386">
        <ele>960.98</ele>
        <time>2013-10-04T12:38:26Z</time>
      </trkpt>
      <trkpt lat="48.14134" lon="7.07397">
        <ele>963.86</ele>
        <time>2013-10-04T12:38:30Z</time>
      </trkpt>
      <trkpt lat="48.14132" lon="7.07402">
        <ele>963.38</ele>
        <time>2013-10-04T12:38:31Z</time>
      </trkpt>
      <trkpt lat="48.14128" lon="7.07411">
        <ele>964.82</ele>
        <time>2013-10-04T12:38:33Z</time>
      </trkpt>
      <trkpt lat="48.14126" lon="7.07428">
        <ele>966.74</ele>
        <time>2013-10-04T12:38:36Z</time>
      </trkpt>
      <trkpt lat="48.14119" lon="7.07457">
        <ele>969.15</ele>
        <time>2013-10-04T12:38:45Z</time>
      </trkpt>
      <trkpt lat="48.14117" lon="7.0746">
        <ele>970.11</ele>
        <time>2013-10-04T12:38:48Z</time>
      </trkpt>
      <trkpt lat="48.14113" lon="7.07461">
        <ele>972.03</ele>
        <time>2013-10-04T12:38:52Z</time>
      </trkpt>
      <trkpt lat="48.1411" lon="7.07466">
        <ele>972.99</ele>
        <time>2013-10-04T12:38:54Z</time>
      </trkpt>
      <trkpt lat="48.141" lon="7.07475">
        <ele>973.95</ele>
        <time>2013-10-04T12:39:07Z</time>
      </trkpt>
      <trkpt lat="48.14097" lon="7.07479">
        <ele>975.39</ele>
        <time>2013-10-04T12:39:20Z</time>
      </trkpt>
      <trkpt lat="48.14087" lon="7.07485">
        <ele>976.84</ele>
        <time>2013-10-04T12:39:28Z</time>
      </trkpt>
      <trkpt lat="48.14076" lon="7.07484">
        <ele>979.24</ele>
        <time>2013-10-04T12:39:37Z</time>
      </trkpt>
      <trkpt lat="48.14062" lon="7.07485">
        <ele>982.6</ele>
        <time>2013-10-04T12:39:44Z</time>
      </trkpt>
      <trkpt lat="48.14045" lon="7.075">
        <ele>985.97</ele>
        <time>2013-10-04T12:39:55Z</time>
      </trkpt>
      <trkpt lat="48.1404" lon="7.07501">
        <ele>985.49</ele>
        <time>2013-10-04T12:39:58Z</time>
      </trkpt>
      <trkpt lat="48.14036" lon="7.07507">
        <ele>986.93</ele>
        <time>2013-10-04T12:40:03Z</time>
      </trkpt>
      <trkpt lat="48.1403" lon="7.07524">
        <ele>989.81</ele>
        <time>2013-10-04T12:40:14Z</time>
      </trkpt>
      <trkpt lat="48.14022" lon="7.07533">
        <ele>991.74</ele>
        <time>2013-10-04T12:40:20Z</time>
      </trkpt>
      <trkpt lat="48.14027" lon="7.07556">
        <ele>992.22</ele>
        <time>2013-10-04T12:40:31Z</time>
      </trkpt>
      <trkpt lat="48.14026" lon="7.07561">
        <ele>992.22</ele>
        <time>2013-10-04T12:41:02Z</time>
      </trkpt>
      <trkpt lat="48.14026" lon="7.07562">
        <ele>992.7</ele>
        <time>2013-10-04T12:41:23Z</time>
      </trkpt>
      <trkpt lat="48.14025" lon="7.07563">
        <ele>991.74</ele>
        <time>2013-10-04T12:41:40Z</time>
      </trkpt>
      <trkpt lat="48.14026" lon="7.07563">
        <ele>991.74</ele>
        <time>2013-10-04T12:41:47Z</time>
      </trkpt>
      <trkpt lat="48.14027" lon="7.07578">
        <ele>994.62</ele>
        <time>2013-10-04T12:41:58Z</time>
      </trkpt>
      <trkpt lat="48.1402" lon="7.07585">
        <ele>995.1</ele>
        <time>2013-10-04T12:42:03Z</time>
      </trkpt>
      <trkpt lat="48.14007" lon="7.07585">
        <ele>997.99</ele>
        <time>2013-10-04T12:42:11Z</time>
      </trkpt>
      <trkpt lat="48.14005" lon="7.07592">
        <ele>999.91</ele>
        <time>2013-10-04T12:42:14Z</time>
      </trkpt>
      <trkpt lat="48.14005" lon="7.07603">
        <ele>1000.87</ele>
        <time>2013-10-04T12:42:19Z</time>
      </trkpt>
      <trkpt lat="48.13993" lon="7.07624">
        <ele>1003.75</ele>
        <time>2013-10-04T12:42:28Z</time>
      </trkpt>
      <trkpt lat="48.13986" lon="7.07637">
        <ele>1008.08</ele>
        <time>2013-10-04T12:42:31Z</time>
      </trkpt>
      <trkpt lat="48.1398" lon="7.07638">
        <ele>1007.6</ele>
        <time>2013-10-04T12:42:32Z</time>
      </trkpt>
      <trkpt lat="48.13972" lon="7.07647">
        <ele>1010.48</ele>
        <time>2013-10-04T12:42:35Z</time>
      </trkpt>
      <trkpt lat="48.13971" lon="7.07657">
        <ele>1011.93</ele>
        <time>2013-10-04T12:42:37Z</time>
      </trkpt>
      <trkpt lat="48.13961" lon="7.07675">
        <ele>1015.77</ele>
        <time>2013-10-04T12:42:42Z</time>
      </trkpt>
      <trkpt lat="48.1396" lon="7.07677">
        <ele>1015.77</ele>
        <time>2013-10-04T12:42:43Z</time>
      </trkpt>
      <trkpt lat="48.13961" lon="7.0768">
        <ele>1016.25</ele>
        <time>2013-10-04T12:42:54Z</time>
      </trkpt>
      <trkpt lat="48.13958" lon="7.07687">
        <ele>1018.17</ele>
        <time>2013-10-04T12:43:02Z</time>
      </trkpt>
      <trkpt lat="48.13957" lon="7.07689">
        <ele>1018.65</ele>
        <time>2013-10-04T12:43:04Z</time>
      </trkpt>
      <trkpt lat="48.13952" lon="7.07702">
        <ele>1021.06</ele>
        <time>2013-10-04T12:43:15Z</time>
      </trkpt>
      <trkpt lat="48.13951" lon="7.07704">
        <ele>1020.1</ele>
        <time>2013-10-04T12:43:28Z</time>
      </trkpt>
      <trkpt lat="48.13953" lon="7.07704">
        <ele>1020.1</ele>
        <time>2013-10-04T12:44:05Z</time>
      </trkpt>
      <trkpt lat="48.13953" lon="7.07706">
        <ele>1020.1</ele>
        <time>2013-10-04T12:44:41Z</time>
      </trkpt>
      <trkpt lat="48.13952" lon="7.07705">
        <ele>1021.06</ele>
        <time>2013-10-04T12:45:21Z</time>
      </trkpt>
      <trkpt lat="48.13952" lon="7.07705">
        <ele>1020.1</ele>
        <time>2013-10-04T12:45:24Z</time>
      </trkpt>
      <trkpt lat="48.1395" lon="7.07707">
        <ele>1022.02</ele>
        <time>2013-10-04T12:45:30Z</time>
      </trkpt>
      <trkpt lat="48.13938" lon="7.07711">
        <ele>1024.9</ele>
        <time>2013-10-04T12:45:42Z</time>
      </trkpt>
      <trkpt lat="48.13937" lon="7.07712">
        <ele>1025.38</ele>
        <time>2013-10-04T12:45:43Z</time>
      </trkpt>
      <trkpt lat="48.13933" lon="7.07708">
        <ele>1025.86</ele>
        <time>2013-10-04T12:45:49Z</time>
      </trkpt>
      <trkpt lat="48.1392" lon="7.07699">
        <ele>1028.27</ele>
        <time>2013-10-04T12:46:02Z</time>
      </trkpt>
      <trkpt lat="48.13915" lon="7.07714">
        <ele>1031.15</ele>
        <time>2013-10-04T12:46:13Z</time>
      </trkpt>
      <trkpt lat="48.13911" lon="7.07712">
        <ele>1032.59</ele>
        <time>2013-10-04T12:46:18Z</time>
      </trkpt>
      <trkpt lat="48.139" lon="7.07706">
        <ele>1035</ele>
        <time>2013-10-04T12:46:30Z</time>
      </trkpt>
      <trkpt lat="48.13899" lon="7.07707">
        <ele>1035</ele>
        <time>2013-10-04T12:46:39Z</time>
      </trkpt>
      <trkpt lat="48.13899" lon="7.07708">
        <ele>1035</ele>
        <time>2013-10-04T12:46:40Z</time>
      </trkpt>
      <trkpt lat="48.13901" lon="7.0771">
        <ele>1034.52</ele>
        <time>2013-10-04T12:46:43Z</time>
      </trkpt>
      <trkpt lat="48.13902" lon="7.0773">
        <ele>1035.96</ele>
        <time>2013-10-04T12:46:51Z</time>
      </trkpt>
      <trkpt lat="48.13901" lon="7.07729">
        <ele>1035.48</ele>
        <time>2013-10-04T12:46:58Z</time>
      </trkpt>
      <trkpt lat="48.13894" lon="7.07723">
        <ele>1036.44</ele>
        <time>2013-10-04T12:47:11Z</time>
      </trkpt>
      <trkpt lat="48.13893" lon="7.07721">
        <ele>1037.88</ele>
        <time>2013-10-04T12:47:19Z</time>
      </trkpt>
      <trkpt lat="48.13891" lon="7.0772">
        <ele>1037.88</ele>
        <time>2013-10-04T12:47:22Z</time>
      </trkpt>
      <trkpt lat="48.13882" lon="7.07713">
        <ele>1038.84</ele>
        <time>2013-10-04T12:47:26Z</time>
      </trkpt>
      <trkpt lat="48.13877" lon="7.07719">
        <ele>1040.76</ele>
        <time>2013-10-04T12:47:32Z</time>
      </trkpt>
      <trkpt lat="48.13872" lon="7.07721">
        <ele>1041.73</ele>
        <time>2013-10-04T12:47:36Z</time>
      </trkpt>
      <trkpt lat="48.13857" lon="7.07705">
        <ele>1044.61</ele>
        <time>2013-10-04T12:47:43Z</time>
      </trkpt>
      <trkpt lat="48.13844" lon="7.07705">
        <ele>1047.49</ele>
        <time>2013-10-04T12:47:49Z</time>
      </trkpt>
      <trkpt lat="48.13843" lon="7.07705">
        <ele>1047.49</ele>
        <time>2013-10-04T12:47:50Z</time>
      </trkpt>
      <trkpt lat="48.1383" lon="7.07698">
        <ele>1050.38</ele>
        <time>2013-10-04T12:48:01Z</time>
      </trkpt>
      <trkpt lat="48.13817" lon="7.07689">
        <ele>1051.82</ele>
        <time>2013-10-04T12:48:11Z</time>
      </trkpt>
      <trkpt lat="48.13817" lon="7.0769">
        <ele>1052.3</ele>
        <time>2013-10-04T12:48:12Z</time>
      </trkpt>
      <trkpt lat="48.13815" lon="7.07691">
        <ele>1052.78</ele>
        <time>2013-10-04T12:48:14Z</time>
      </trkpt>
      <trkpt lat="48.13797" lon="7.07679">
        <ele>1054.22</ele>
        <time>2013-10-04T12:48:28Z</time>
      </trkpt>
      <trkpt lat="48.13785" lon="7.07674">
        <ele>1057.11</ele>
        <time>2013-10-04T12:48:37Z</time>
      </trkpt>
      <trkpt lat="48.13786" lon="7.07674">
        <ele>1057.59</ele>
        <time>2013-10-04T12:48:58Z</time>
      </trkpt>
      <trkpt lat="48.1379" lon="7.07686">
        <ele>1058.07</ele>
        <time>2013-10-04T12:49:06Z</time>
      </trkpt>
      <trkpt lat="48.13784" lon="7.07695">
        <ele>1060.47</ele>
        <time>2013-10-04T12:49:14Z</time>
      </trkpt>
      <trkpt lat="48.13775" lon="7.07702">
        <ele>1062.87</ele>
        <time>2013-10-04T12:49:26Z</time>
      </trkpt>
      <trkpt lat="48.13768" lon="7.07713">
        <ele>1066.24</ele>
        <time>2013-10-04T12:49:37Z</time>
      </trkpt>
      <trkpt lat="48.13768" lon="7.07714">
        <ele>1065.76</ele>
        <time>2013-10-04T12:49:38Z</time>
      </trkpt>
      <trkpt lat="48.1377" lon="7.07725">
        <ele>1066.24</ele>
        <time>2013-10-04T12:49:45Z</time>
      </trkpt>
      <trkpt lat="48.13768" lon="7.07734">
        <ele>1067.68</ele>
        <time>2013-10-04T12:49:51Z</time>
      </trkpt>
      <trkpt lat="48.13772" lon="7.07746">
        <ele>1068.64</ele>
        <time>2013-10-04T12:50:04Z</time>
      </trkpt>
      <trkpt lat="48.13773" lon="7.07749">
        <ele>1068.16</ele>
        <time>2013-10-04T12:50:37Z</time>
      </trkpt>
      <trkpt lat="48.13774" lon="7.07748">
        <ele>1067.68</ele>
        <time>2013-10-04T12:51:13Z</time>
      </trkpt>
      <trkpt lat="48.13774" lon="7.07747">
        <ele>1067.68</ele>
        <time>2013-10-04T12:51:49Z</time>
      </trkpt>
      <trkpt lat="48.13775" lon="7.07748">
        <ele>1068.16</ele>
        <time>2013-10-04T12:52:26Z</time>
      </trkpt>
      <trkpt lat="48.13775" lon="7.07748">
        <ele>1068.16</ele>
        <time>2013-10-04T12:53:08Z</time>
      </trkpt>
      <trkpt lat="48.13775" lon="7.07748">
        <ele>1067.68</ele>
        <time>2013-10-04T12:53:43Z</time>
      </trkpt>
      <trkpt lat="48.13776" lon="7.07748">
        <ele>1067.68</ele>
        <time>2013-10-04T12:54:23Z</time>
      </trkpt>
      <trkpt lat="48.13777" lon="7.07748">
        <ele>1067.68</ele>
        <time>2013-10-04T12:55:02Z</time>
      </trkpt>
      <trkpt lat="48.13778" lon="7.07748">
        <ele>1067.68</ele>
        <time>2013-10-04T12:55:38Z</time>
      </trkpt>
      <trkpt lat="48.13777" lon="7.07749">
        <ele>1068.64</ele>
        <time>2013-10-04T12:56:00Z</time>
      </trkpt>
      <trkpt lat="48.13779" lon="7.07755">
        <ele>1068.16</ele>
        <time>2013-10-04T12:56:03Z</time>
      </trkpt>
      <trkpt lat="48.13783" lon="7.0779">
        <ele>1072.49</ele>
        <time>2013-10-04T12:56:11Z</time>
      </trkpt>
      <trkpt lat="48.13783" lon="7.07794">
        <ele>1072.49</ele>
        <time>2013-10-04T12:56:12Z</time>
      </trkpt>
      <trkpt lat="48.13789" lon="7.07821">
        <ele>1074.89</ele>
        <time>2013-10-04T12:56:21Z</time>
      </trkpt>
      <trkpt lat="48.13788" lon="7.07833">
        <ele>1076.81</ele>
        <time>2013-10-04T12:56:27Z</time>
      </trkpt>
      <trkpt lat="48.13782" lon="7.07842">
        <ele>1079.7</ele>
        <time>2013-10-04T12:56:33Z</time>
      </trkpt>
      <trkpt lat="48.13788" lon="7.07866">
        <ele>1080.66</ele>
        <time>2013-10-04T12:56:42Z</time>
      </trkpt>
      <trkpt lat="48.13783" lon="7.07869">
        <ele>1083.06</ele>
        <time>2013-10-04T12:56:46Z</time>
      </trkpt>
      <trkpt lat="48.13783" lon="7.07882">
        <ele>1084.5</ele>
        <time>2013-10-04T12:56:50Z</time>
      </trkpt>
      <trkpt lat="48.13779" lon="7.07893">
        <ele>1086.91</ele>
        <time>2013-10-04T12:57:06Z</time>
      </trkpt>
      <trkpt lat="48.13778" lon="7.07894">
        <ele>1086.91</ele>
        <time>2013-10-04T12:57:08Z</time>
      </trkpt>
      <trkpt lat="48.13771" lon="7.07894">
        <ele>1088.35</ele>
        <time>2013-10-04T12:57:12Z</time>
      </trkpt>
      <trkpt lat="48.13768" lon="7.07903">
        <ele>1090.27</ele>
        <time>2013-10-04T12:57:19Z</time>
      </trkpt>
      <trkpt lat="48.13764" lon="7.07904">
        <ele>1090.75</ele>
        <time>2013-10-04T12:57:23Z</time>
      </trkpt>
      <trkpt lat="48.13762" lon="7.07903">
        <ele>1090.75</ele>
        <time>2013-10-04T12:57:26Z</time>
      </trkpt>
      <trkpt lat="48.13759" lon="7.07904">
        <ele>1091.71</ele>
        <time>2013-10-04T12:57:33Z</time>
      </trkpt>
      <trkpt lat="48.1376" lon="7.07916">
        <ele>1092.68</ele>
        <time>2013-10-04T12:57:43Z</time>
      </trkpt>
      <trkpt lat="48.1376" lon="7.07924">
        <ele>1092.2</ele>
        <time>2013-10-04T12:57:48Z</time>
      </trkpt>
      <trkpt lat="48.13756" lon="7.07926">
        <ele>1094.12</ele>
        <time>2013-10-04T12:57:51Z</time>
      </trkpt>
      <trkpt lat="48.1375" lon="7.07925">
        <ele>1094.6</ele>
        <time>2013-10-04T12:57:54Z</time>
      </trkpt>
      <trkpt lat="48.13742" lon="7.07918">
        <ele>1095.08</ele>
        <time>2013-10-04T12:58:01Z</time>
      </trkpt>
      <trkpt lat="48.13735" lon="7.07923">
        <ele>1097</ele>
        <time>2013-10-04T12:58:06Z</time>
      </trkpt>
      <trkpt lat="48.13733" lon="7.07933">
        <ele>1097.48</ele>
        <time>2013-10-04T12:58:11Z</time>
      </trkpt>
      <trkpt lat="48.13725" lon="7.07943">
        <ele>1100.85</ele>
        <time>2013-10-04T12:58:19Z</time>
      </trkpt>
      <trkpt lat="48.13725" lon="7.07947">
        <ele>1100.85</ele>
        <time>2013-10-04T12:58:37Z</time>
      </trkpt>
      <trkpt lat="48.13725" lon="7.07952">
        <ele>1101.81</ele>
        <time>2013-10-04T12:58:40Z</time>
      </trkpt>
      <trkpt lat="48.13729" lon="7.07978">
        <ele>1103.73</ele>
        <time>2013-10-04T12:58:50Z</time>
      </trkpt>
      <trkpt lat="48.13732" lon="7.07989">
        <ele>1104.69</ele>
        <time>2013-10-04T12:58:54Z</time>
      </trkpt>
      <trkpt lat="48.13736" lon="7.07996">
        <ele>1104.69</ele>
        <time>2013-10-04T12:58:58Z</time>
      </trkpt>
      <trkpt lat="48.13735" lon="7.08004">
        <ele>1105.65</ele>
        <time>2013-10-04T12:59:08Z</time>
      </trkpt>
      <trkpt lat="48.13736" lon="7.08006">
        <ele>1106.13</ele>
        <time>2013-10-04T12:59:22Z</time>
      </trkpt>
      <trkpt lat="48.13735" lon="7.08006">
        <ele>1105.65</ele>
        <time>2013-10-04T12:59:42Z</time>
      </trkpt>
      <trkpt lat="48.13734" lon="7.08005">
        <ele>1106.13</ele>
        <time>2013-10-04T12:59:54Z</time>
      </trkpt>
      <trkpt lat="48.13734" lon="7.08004">
        <ele>1105.65</ele>
        <time>2013-10-04T12:59:55Z</time>
      </trkpt>
      <trkpt lat="48.13729" lon="7.08003">
        <ele>1106.61</ele>
        <time>2013-10-04T13:00:00Z</time>
      </trkpt>
      <trkpt lat="48.13731" lon="7.08011">
        <ele>1108.06</ele>
        <time>2013-10-04T13:00:06Z</time>
      </trkpt>
      <trkpt lat="48.13734" lon="7.08032">
        <ele>1109.98</ele>
        <time>2013-10-04T13:00:19Z</time>
      </trkpt>
      <trkpt lat="48.13734" lon="7.08034">
        <ele>1110.94</ele>
        <time>2013-10-04T13:00:22Z</time>
      </trkpt>
      <trkpt lat="48.13734" lon="7.08056">
        <ele>1112.38</ele>
        <time>2013-10-04T13:00:29Z</time>
      </trkpt>
      <trkpt lat="48.13737" lon="7.08073">
        <ele>1114.79</ele>
        <time>2013-10-04T13:00:32Z</time>
      </trkpt>
      <trkpt lat="48.13739" lon="7.0808">
        <ele>1115.75</ele>
        <time>2013-10-04T13:00:33Z</time>
      </trkpt>
      <trkpt lat="48.13741" lon="7.08087">
        <ele>1115.75</ele>
        <time>2013-10-04T13:00:34Z</time>
      </trkpt>
      <trkpt lat="48.13749" lon="7.08106">
        <ele>1115.27</ele>
        <time>2013-10-04T13:00:39Z</time>
      </trkpt>
      <trkpt lat="48.13749" lon="7.08109">
        <ele>1116.71</ele>
        <time>2013-10-04T13:00:40Z</time>
      </trkpt>
      <trkpt lat="48.13748" lon="7.08112">
        <ele>1116.71</ele>
        <time>2013-10-04T13:00:41Z</time>
      </trkpt>
      <trkpt lat="48.13748" lon="7.08115">
        <ele>1117.19</ele>
        <time>2013-10-04T13:00:42Z</time>
      </trkpt>
      <trkpt lat="48.13748" lon="7.08118">
        <ele>1117.67</ele>
        <time>2013-10-04T13:00:43Z</time>
      </trkpt>
      <trkpt lat="48.13749" lon="7.08123">
        <ele>1118.15</ele>
        <time>2013-10-04T13:00:44Z</time>
      </trkpt>
      <trkpt lat="48.13749" lon="7.08128">
        <ele>1119.11</ele>
        <time>2013-10-04T13:00:45Z</time>
      </trkpt>
      <trkpt lat="48.13748" lon="7.08134">
        <ele>1119.11</ele>
        <time>2013-10-04T13:00:46Z</time>
      </trkpt>
      <trkpt lat="48.13748" lon="7.0814">
        <ele>1120.07</ele>
        <time>2013-10-04T13:00:47Z</time>
      </trkpt>
      <trkpt lat="48.13747" lon="7.08145">
        <ele>1120.55</ele>
        <time>2013-10-04T13:00:48Z</time>
      </trkpt>
      <trkpt lat="48.13748" lon="7.08151">
        <ele>1120.55</ele>
        <time>2013-10-04T13:00:49Z</time>
      </trkpt>
      <trkpt lat="48.13749" lon="7.08156">
        <ele>1120.55</ele>
        <time>2013-10-04T13:00:50Z</time>
      </trkpt>
      <trkpt lat="48.13751" lon="7.08163">
        <ele>1120.55</ele>
        <time>2013-10-04T13:00:51Z</time>
      </trkpt>
      <trkpt lat="48.13754" lon="7.0817">
        <ele>1121.52</ele>
        <time>2013-10-04T13:00:52Z</time>
      </trkpt>
      <trkpt lat="48.13763" lon="7.08192">
        <ele>1122</ele>
        <time>2013-10-04T13:00:55Z</time>
      </trkpt>
      <trkpt lat="48.13765" lon="7.082">
        <ele>1122</ele>
        <time>2013-10-04T13:00:56Z</time>
      </trkpt>
      <trkpt lat="48.13766" lon="7.08208">
        <ele>1121.52</ele>
        <time>2013-10-04T13:00:57Z</time>
      </trkpt>
      <trkpt lat="48.13766" lon="7.08215">
        <ele>1122</ele>
        <time>2013-10-04T13:00:58Z</time>
      </trkpt>
      <trkpt lat="48.13767" lon="7.08221">
        <ele>1121.52</ele>
        <time>2013-10-04T13:00:59Z</time>
      </trkpt>
      <trkpt lat="48.13767" lon="7.08225">
        <ele>1121.52</ele>
        <time>2013-10-04T13:01:00Z</time>
      </trkpt>
      <trkpt lat="48.13766" lon="7.08239">
        <ele>1122.48</ele>
        <time>2013-10-04T13:01:03Z</time>
      </trkpt>
      <trkpt lat="48.13766" lon="7.08248">
        <ele>1122.96</ele>
        <time>2013-10-04T13:01:04Z</time>
      </trkpt>
      <trkpt lat="48.13765" lon="7.08259">
        <ele>1123.44</ele>
        <time>2013-10-04T13:01:05Z</time>
      </trkpt>
      <trkpt lat="48.13764" lon="7.08269">
        <ele>1122.96</ele>
        <time>2013-10-04T13:01:06Z</time>
      </trkpt>
      <trkpt lat="48.13762" lon="7.0828">
        <ele>1123.92</ele>
        <time>2013-10-04T13:01:07Z</time>
      </trkpt>
      <trkpt lat="48.13759" lon="7.08291">
        <ele>1123.92</ele>
        <time>2013-10-04T13:01:08Z</time>
      </trkpt>
      <trkpt lat="48.13757" lon="7.08303">
        <ele>1124.88</ele>
        <time>2013-10-04T13:01:09Z</time>
      </trkpt>
      <trkpt lat="48.13756" lon="7.08315">
        <ele>1124.88</ele>
        <time>2013-10-04T13:01:10Z</time>
      </trkpt>
      <trkpt lat="48.13756" lon="7.08327">
        <ele>1125.36</ele>
        <time>2013-10-04T13:01:11Z</time>
      </trkpt>
      <trkpt lat="48.13757" lon="7.08339">
        <ele>1125.84</ele>
        <time>2013-10-04T13:01:12Z</time>
      </trkpt>
      <trkpt lat="48.13758" lon="7.08352">
        <ele>1126.8</ele>
        <time>2013-10-04T13:01:13Z</time>
      </trkpt>
      <trkpt lat="48.13759" lon="7.08366">
        <ele>1126.8</ele>
        <time>2013-10-04T13:01:14Z</time>
      </trkpt>
      <trkpt lat="48.13764" lon="7.08464">
        <ele>1128.73</ele>
        <time>2013-10-04T13:01:22Z</time>
      </trkpt>
      <trkpt lat="48.13761" lon="7.0851">
        <ele>1132.09</ele>
        <time>2013-10-04T13:01:26Z</time>
      </trkpt>
      <trkpt lat="48.13759" lon="7.08522">
        <ele>1133.53</ele>
        <time>2013-10-04T13:01:27Z</time>
      </trkpt>
      <trkpt lat="48.13752" lon="7.08566">
        <ele>1135.94</ele>
        <time>2013-10-04T13:01:31Z</time>
      </trkpt>
      <trkpt lat="48.13749" lon="7.08575">
        <ele>1136.42</ele>
        <time>2013-10-04T13:01:32Z</time>
      </trkpt>
      <trkpt lat="48.13745" lon="7.08583">
        <ele>1136.9</ele>
        <time>2013-10-04T13:01:33Z</time>
      </trkpt>
      <trkpt lat="48.1374" lon="7.08589">
        <ele>1137.86</ele>
        <time>2013-10-04T13:01:34Z</time>
      </trkpt>
      <trkpt lat="48.13733" lon="7.08594">
        <ele>1137.86</ele>
        <time>2013-10-04T13:01:35Z</time>
      </trkpt>
      <trkpt lat="48.13726" lon="7.08597">
        <ele>1137.86</ele>
        <time>2013-10-04T13:01:36Z</time>
      </trkpt>
      <trkpt lat="48.13719" lon="7.08596">
        <ele>1139.3</ele>
        <time>2013-10-04T13:01:37Z</time>
      </trkpt>
      <trkpt lat="48.13712" lon="7.08594">
        <ele>1138.82</ele>
        <time>2013-10-04T13:01:38Z</time>
      </trkpt>
      <trkpt lat="48.13706" lon="7.08589">
        <ele>1138.82</ele>
        <time>2013-10-04T13:01:39Z</time>
      </trkpt>
      <trkpt lat="48.13702" lon="7.08581">
        <ele>1138.82</ele>
        <time>2013-10-04T13:01:40Z</time>
      </trkpt>
      <trkpt lat="48.13701" lon="7.0857">
        <ele>1138.34</ele>
        <time>2013-10-04T13:01:41Z</time>
      </trkpt>
      <trkpt lat="48.13702" lon="7.08559">
        <ele>1138.34</ele>
        <time>2013-10-04T13:01:42Z</time>
      </trkpt>
      <trkpt lat="48.13703" lon="7.08548">
        <ele>1139.3</ele>
        <time>2013-10-04T13:01:43Z</time>
      </trkpt>
      <trkpt lat="48.13704" lon="7.08538">
        <ele>1140.26</ele>
        <time>2013-10-04T13:01:44Z</time>
      </trkpt>
      <trkpt lat="48.13706" lon="7.08527">
        <ele>1140.74</ele>
        <time>2013-10-04T13:01:45Z</time>
      </trkpt>
      <trkpt lat="48.13706" lon="7.08517">
        <ele>1141.7</ele>
        <time>2013-10-04T13:01:46Z</time>
      </trkpt>
      <trkpt lat="48.13705" lon="7.08507">
        <ele>1142.18</ele>
        <time>2013-10-04T13:01:47Z</time>
      </trkpt>
      <trkpt lat="48.13704" lon="7.08501">
        <ele>1141.7</ele>
        <time>2013-10-04T13:01:48Z</time>
      </trkpt>
      <trkpt lat="48.13703" lon="7.08496">
        <ele>1142.18</ele>
        <time>2013-10-04T13:01:49Z</time>
      </trkpt>
      <trkpt lat="48.13701" lon="7.08492">
        <ele>1142.18</ele>
        <time>2013-10-04T13:01:50Z</time>
      </trkpt>
      <trkpt lat="48.13697" lon="7.08488">
        <ele>1143.63</ele>
        <time>2013-10-04T13:01:51Z</time>
      </trkpt>
      <trkpt lat="48.13675" lon="7.08491">
        <ele>1146.99</ele>
        <time>2013-10-04T13:01:55Z</time>
      </trkpt>
      <trkpt lat="48.13671" lon="7.08497">
        <ele>1148.43</ele>
        <time>2013-10-04T13:01:56Z</time>
      </trkpt>
      <trkpt lat="48.13666" lon="7.08504">
        <ele>1149.39</ele>
        <time>2013-10-04T13:01:57Z</time>
      </trkpt>
      <trkpt lat="48.13662" lon="7.0851">
        <ele>1149.87</ele>
        <time>2013-10-04T13:01:58Z</time>
      </trkpt>
      <trkpt lat="48.1366" lon="7.08517">
        <ele>1150.84</ele>
        <time>2013-10-04T13:01:59Z</time>
      </trkpt>
      <trkpt lat="48.13659" lon="7.08524">
        <ele>1151.32</ele>
        <time>2013-10-04T13:02:00Z</time>
      </trkpt>
      <trkpt lat="48.1366" lon="7.0853">
        <ele>1150.84</ele>
        <time>2013-10-04T13:02:01Z</time>
      </trkpt>
      <trkpt lat="48.13661" lon="7.08534">
        <ele>1150.35</ele>
        <time>2013-10-04T13:02:02Z</time>
      </trkpt>
      <trkpt lat="48.13662" lon="7.08536">
        <ele>1149.39</ele>
        <time>2013-10-04T13:02:03Z</time>
      </trkpt>
      <trkpt lat="48.13662" lon="7.08537">
        <ele>1149.39</ele>
        <time>2013-10-04T13:02:04Z</time>
      </trkpt>
      <trkpt lat="48.13663" lon="7.08536">
        <ele>1150.35</ele>
        <time>2013-10-04T13:02:20Z</time>
      </trkpt>
    </trkseg>
  </trk>
</gpx>